sensor_id;sensor_type;location;lat;lon;timestamp;P1;durP1;ratioP1;P2;durP2;ratioP2
13269;SDS011;6703;51.994;7.570;2023-08-30T00:00:37;7.00;;;3.83;;
13269;SDS011;6703;51.994;7.570;2023-08-30T00:03:05;5.15;;;3.30;;
13269;SDS011;6703;51.994;7.570;2023-08-30T00:05:33;7.25;;;3.80;;
13269;SDS011;6703;51.994;7.570;2023-08-30T00:08:03;6.68;;;4.25;;
13269;SDS011;6703;51.994;7.570;2023-08-30T00:10:32;5.70;;;3.40;;
13269;SDS011;6703;51.994;7.570;2023-08-30T00:13:00;5.95;;;3.80;;
13269;SDS011;6703;51.994;7.570;2023-08-30T00:15:28;7.00;;;4.28;;
13269;SDS011;6703;51.994;7.570;2023-08-30T00:17:56;7.53;;;3.90;;
13269;SDS011;6703;51.994;7.570;2023-08-30T00:20:24;8.07;;;3.80;;
13269;SDS011;6703;51.994;7.570;2023-08-30T00:22:52;7.25;;;3.88;;
13269;SDS011;6703;51.994;7.570;2023-08-30T00:25:39;8.30;;;4.30;;
13269;SDS011;6703;51.994;7.570;2023-08-30T00:28:07;5.80;;;3.70;;
13269;SDS011;6703;51.994;7.570;2023-08-30T00:30:35;8.45;;;4.32;;
13269;SDS011;6703;51.994;7.570;2023-08-30T00:33:03;7.82;;;4.40;;
13269;SDS011;6703;51.994;7.570;2023-08-30T00:35:31;7.65;;;4.70;;
13269;SDS011;6703;51.994;7.570;2023-08-30T00:37:59;5.30;;;3.63;;
13269;SDS011;6703;51.994;7.570;2023-08-30T00:40:28;8.40;;;4.70;;
13269;SDS011;6703;51.994;7.570;2023-08-30T00:42:57;7.32;;;5.03;;
13269;SDS011;6703;51.994;7.570;2023-08-30T00:45:25;7.60;;;4.75;;
13269;SDS011;6703;51.994;7.570;2023-08-30T00:47:54;9.80;;;4.82;;
13269;SDS011;6703;51.994;7.570;2023-08-30T00:50:22;11.38;;;5.40;;
13269;SDS011;6703;51.994;7.570;2023-08-30T00:52:50;9.57;;;4.63;;
13269;SDS011;6703;51.994;7.570;2023-08-30T00:55:18;11.13;;;5.00;;
13269;SDS011;6703;51.994;7.570;2023-08-30T00:57:46;10.47;;;5.03;;
13269;SDS011;6703;51.994;7.570;2023-08-30T01:00:15;8.32;;;5.43;;
13269;SDS011;6703;51.994;7.570;2023-08-30T01:02:43;10.02;;;5.28;;
13269;SDS011;6703;51.994;7.570;2023-08-30T01:05:12;10.77;;;5.47;;
13269;SDS011;6703;51.994;7.570;2023-08-30T01:07:40;10.40;;;5.60;;
13269;SDS011;6703;51.994;7.570;2023-08-30T01:10:08;11.52;;;5.90;;
13269;SDS011;6703;51.994;7.570;2023-08-30T01:12:37;9.47;;;5.13;;
13269;SDS011;6703;51.994;7.570;2023-08-30T01:15:09;8.60;;;4.90;;
13269;SDS011;6703;51.994;7.570;2023-08-30T01:17:41;11.97;;;5.30;;
13269;SDS011;6703;51.994;7.570;2023-08-30T01:20:09;12.13;;;5.93;;
13269;SDS011;6703;51.994;7.570;2023-08-30T01:22:43;13.05;;;5.95;;
13269;SDS011;6703;51.994;7.570;2023-08-30T01:25:20;10.03;;;6.00;;
13269;SDS011;6703;51.994;7.570;2023-08-30T01:27:56;14.70;;;5.97;;
13269;SDS011;6703;51.994;7.570;2023-08-30T01:30:26;13.23;;;6.15;;
13269;SDS011;6703;51.994;7.570;2023-08-30T01:32:54;10.37;;;5.70;;
13269;SDS011;6703;51.994;7.570;2023-08-30T01:35:23;10.57;;;6.20;;
13269;SDS011;6703;51.994;7.570;2023-08-30T01:37:56;13.27;;;6.18;;
13269;SDS011;6703;51.994;7.570;2023-08-30T01:40:24;13.52;;;5.88;;
13269;SDS011;6703;51.994;7.570;2023-08-30T01:42:53;11.63;;;6.50;;
13269;SDS011;6703;51.994;7.570;2023-08-30T01:45:22;11.18;;;5.95;;
13269;SDS011;6703;51.994;7.570;2023-08-30T01:47:51;13.48;;;6.72;;
13269;SDS011;6703;51.994;7.570;2023-08-30T01:50:19;12.75;;;6.65;;
13269;SDS011;6703;51.994;7.570;2023-08-30T01:52:48;13.43;;;6.32;;
13269;SDS011;6703;51.994;7.570;2023-08-30T01:55:15;14.57;;;7.25;;
13269;SDS011;6703;51.994;7.570;2023-08-30T01:57:45;17.20;;;6.97;;
13269;SDS011;6703;51.994;7.570;2023-08-30T02:00:14;13.50;;;7.13;;
13269;SDS011;6703;51.994;7.570;2023-08-30T02:02:43;11.77;;;6.55;;
13269;SDS011;6703;51.994;7.570;2023-08-30T02:05:11;18.33;;;8.23;;
13269;SDS011;6703;51.994;7.570;2023-08-30T02:07:42;15.27;;;8.23;;
13269;SDS011;6703;51.994;7.570;2023-08-30T02:10:14;20.00;;;8.80;;
13269;SDS011;6703;51.994;7.570;2023-08-30T02:12:44;18.17;;;9.05;;
13269;SDS011;6703;51.994;7.570;2023-08-30T02:15:14;15.38;;;8.15;;
13269;SDS011;6703;51.994;7.570;2023-08-30T02:17:45;17.92;;;8.90;;
13269;SDS011;6703;51.994;7.570;2023-08-30T02:20:13;18.38;;;9.13;;
13269;SDS011;6703;51.994;7.570;2023-08-30T02:22:41;16.83;;;8.20;;
13269;SDS011;6703;51.994;7.570;2023-08-30T02:25:09;15.82;;;7.40;;
13269;SDS011;6703;51.994;7.570;2023-08-30T02:27:37;16.08;;;8.18;;
13269;SDS011;6703;51.994;7.570;2023-08-30T02:30:05;17.33;;;8.00;;
13269;SDS011;6703;51.994;7.570;2023-08-30T02:32:33;16.85;;;8.52;;
13269;SDS011;6703;51.994;7.570;2023-08-30T02:35:03;19.80;;;9.18;;
13269;SDS011;6703;51.994;7.570;2023-08-30T02:37:31;21.45;;;10.02;;
13269;SDS011;6703;51.994;7.570;2023-08-30T02:39:59;20.27;;;10.48;;
13269;SDS011;6703;51.994;7.570;2023-08-30T02:42:27;21.83;;;10.02;;
13269;SDS011;6703;51.994;7.570;2023-08-30T02:44:55;21.92;;;10.27;;
13269;SDS011;6703;51.994;7.570;2023-08-30T02:47:23;26.33;;;10.82;;
13269;SDS011;6703;51.994;7.570;2023-08-30T02:49:57;24.10;;;11.55;;
13269;SDS011;6703;51.994;7.570;2023-08-30T02:52:26;30.38;;;11.82;;
13269;SDS011;6703;51.994;7.570;2023-08-30T02:54:53;25.98;;;11.52;;
13269;SDS011;6703;51.994;7.570;2023-08-30T02:57:21;25.35;;;11.75;;
13269;SDS011;6703;51.994;7.570;2023-08-30T02:59:49;26.38;;;11.35;;
13269;SDS011;6703;51.994;7.570;2023-08-30T03:02:17;26.25;;;12.00;;
13269;SDS011;6703;51.994;7.570;2023-08-30T03:04:45;22.07;;;11.73;;
13269;SDS011;6703;51.994;7.570;2023-08-30T03:07:12;24.98;;;11.82;;
13269;SDS011;6703;51.994;7.570;2023-08-30T03:09:41;31.05;;;12.80;;
13269;SDS011;6703;51.994;7.570;2023-08-30T03:12:09;27.30;;;11.95;;
13269;SDS011;6703;51.994;7.570;2023-08-30T03:14:37;28.23;;;12.80;;
13269;SDS011;6703;51.994;7.570;2023-08-30T03:17:04;27.52;;;12.65;;
13269;SDS011;6703;51.994;7.570;2023-08-30T03:19:32;35.08;;;14.57;;
13269;SDS011;6703;51.994;7.570;2023-08-30T03:22:00;26.13;;;12.35;;
13269;SDS011;6703;51.994;7.570;2023-08-30T03:24:27;24.70;;;12.77;;
13269;SDS011;6703;51.994;7.570;2023-08-30T03:26:57;33.60;;;14.27;;
13269;SDS011;6703;51.994;7.570;2023-08-30T03:29:26;31.33;;;13.25;;
13269;SDS011;6703;51.994;7.570;2023-08-30T03:31:54;31.75;;;13.15;;
13269;SDS011;6703;51.994;7.570;2023-08-30T03:34:21;35.33;;;14.57;;
13269;SDS011;6703;51.994;7.570;2023-08-30T03:36:49;32.42;;;14.13;;
13269;SDS011;6703;51.994;7.570;2023-08-30T03:39:20;35.20;;;15.02;;
13269;SDS011;6703;51.994;7.570;2023-08-30T03:41:48;30.27;;;14.17;;
13269;SDS011;6703;51.994;7.570;2023-08-30T03:44:18;30.55;;;13.55;;
13269;SDS011;6703;51.994;7.570;2023-08-30T03:46:45;32.10;;;13.95;;
13269;SDS011;6703;51.994;7.570;2023-08-30T03:49:13;30.63;;;13.75;;
13269;SDS011;6703;51.994;7.570;2023-08-30T03:51:41;40.08;;;13.73;;
13269;SDS011;6703;51.994;7.570;2023-08-30T03:54:09;32.03;;;13.73;;
13269;SDS011;6703;51.994;7.570;2023-08-30T03:56:42;29.38;;;12.73;;
13269;SDS011;6703;51.994;7.570;2023-08-30T03:59:10;30.67;;;13.03;;
13269;SDS011;6703;51.994;7.570;2023-08-30T04:01:40;31.08;;;13.45;;
13269;SDS011;6703;51.994;7.570;2023-08-30T04:04:07;33.63;;;14.17;;
13269;SDS011;6703;51.994;7.570;2023-08-30T04:06:35;34.20;;;13.68;;
13269;SDS011;6703;51.994;7.570;2023-08-30T04:09:03;28.52;;;13.20;;
13269;SDS011;6703;51.994;7.570;2023-08-30T04:11:31;38.67;;;13.57;;
13269;SDS011;6703;51.994;7.570;2023-08-30T04:13:59;38.90;;;15.13;;
13269;SDS011;6703;51.994;7.570;2023-08-30T04:16:27;37.75;;;15.38;;
13269;SDS011;6703;51.994;7.570;2023-08-30T04:18:56;44.13;;;15.43;;
13269;SDS011;6703;51.994;7.570;2023-08-30T04:21:24;38.92;;;15.63;;
13269;SDS011;6703;51.994;7.570;2023-08-30T04:23:52;48.40;;;17.38;;
13269;SDS011;6703;51.994;7.570;2023-08-30T04:26:20;49.47;;;17.93;;
13269;SDS011;6703;51.994;7.570;2023-08-30T04:28:48;52.97;;;17.85;;
13269;SDS011;6703;51.994;7.570;2023-08-30T04:31:15;56.17;;;18.63;;
13269;SDS011;6703;51.994;7.570;2023-08-30T04:33:43;44.43;;;16.97;;
13269;SDS011;6703;51.994;7.570;2023-08-30T04:36:12;56.10;;;17.42;;
13269;SDS011;6703;51.994;7.570;2023-08-30T04:38:40;40.53;;;17.48;;
13269;SDS011;6703;51.994;7.570;2023-08-30T04:41:25;48.33;;;17.27;;
13269;SDS011;6703;51.994;7.570;2023-08-30T04:43:53;34.15;;;14.93;;
13269;SDS011;6703;51.994;7.570;2023-08-30T04:46:21;33.45;;;15.02;;
13269;SDS011;6703;51.994;7.570;2023-08-30T04:48:49;33.08;;;15.43;;
13269;SDS011;6703;51.994;7.570;2023-08-30T04:51:18;38.30;;;14.55;;
13269;SDS011;6703;51.994;7.570;2023-08-30T04:53:46;34.60;;;14.98;;
13269;SDS011;6703;51.994;7.570;2023-08-30T04:56:13;41.13;;;15.48;;
13269;SDS011;6703;51.994;7.570;2023-08-30T04:58:44;33.25;;;15.80;;
13269;SDS011;6703;51.994;7.570;2023-08-30T05:01:12;44.67;;;16.70;;
13269;SDS011;6703;51.994;7.570;2023-08-30T05:03:41;39.13;;;16.60;;
13269;SDS011;6703;51.994;7.570;2023-08-30T05:06:09;43.67;;;18.23;;
13269;SDS011;6703;51.994;7.570;2023-08-30T05:08:41;42.25;;;17.55;;
13269;SDS011;6703;51.994;7.570;2023-08-30T05:11:09;41.95;;;19.13;;
13269;SDS011;6703;51.994;7.570;2023-08-30T05:13:37;46.38;;;18.05;;
13269;SDS011;6703;51.994;7.570;2023-08-30T05:16:05;39.80;;;16.73;;
13269;SDS011;6703;51.994;7.570;2023-08-30T05:18:33;39.55;;;17.05;;
13269;SDS011;6703;51.994;7.570;2023-08-30T05:21:01;34.75;;;17.35;;
13269;SDS011;6703;51.994;7.570;2023-08-30T05:23:30;39.38;;;17.08;;
13269;SDS011;6703;51.994;7.570;2023-08-30T05:25:59;36.60;;;17.90;;
13269;SDS011;6703;51.994;7.570;2023-08-30T05:28:27;39.45;;;17.42;;
13269;SDS011;6703;51.994;7.570;2023-08-30T05:30:55;40.40;;;18.13;;
13269;SDS011;6703;51.994;7.570;2023-08-30T05:33:23;38.92;;;17.45;;
13269;SDS011;6703;51.994;7.570;2023-08-30T05:35:51;38.60;;;17.13;;
13269;SDS011;6703;51.994;7.570;2023-08-30T05:38:19;38.22;;;17.65;;
13269;SDS011;6703;51.994;7.570;2023-08-30T05:40:46;35.05;;;16.65;;
13269;SDS011;6703;51.994;7.570;2023-08-30T05:43:16;35.75;;;16.10;;
13269;SDS011;6703;51.994;7.570;2023-08-30T05:45:44;33.05;;;16.08;;
13269;SDS011;6703;51.994;7.570;2023-08-30T05:48:12;30.65;;;15.38;;
13269;SDS011;6703;51.994;7.570;2023-08-30T05:50:40;30.90;;;14.57;;
13269;SDS011;6703;51.994;7.570;2023-08-30T05:53:08;29.23;;;14.60;;
13269;SDS011;6703;51.994;7.570;2023-08-30T05:55:35;25.80;;;14.68;;
13269;SDS011;6703;51.994;7.570;2023-08-30T05:58:06;26.50;;;14.30;;
13269;SDS011;6703;51.994;7.570;2023-08-30T06:00:36;27.13;;;14.00;;
13269;SDS011;6703;51.994;7.570;2023-08-30T06:03:04;28.05;;;14.70;;
13269;SDS011;6703;51.994;7.570;2023-08-30T06:05:32;30.17;;;15.47;;
13269;SDS011;6703;51.994;7.570;2023-08-30T06:08:00;32.78;;;16.02;;
13269;SDS011;6703;51.994;7.570;2023-08-30T06:10:28;35.77;;;16.37;;
13269;SDS011;6703;51.994;7.570;2023-08-30T06:12:56;32.42;;;14.82;;
13269;SDS011;6703;51.994;7.570;2023-08-30T06:15:24;32.53;;;16.48;;
13269;SDS011;6703;51.994;7.570;2023-08-30T06:17:54;36.42;;;16.67;;
13269;SDS011;6703;51.994;7.570;2023-08-30T06:20:22;34.58;;;16.90;;
13269;SDS011;6703;51.994;7.570;2023-08-30T06:22:50;35.70;;;17.33;;
13269;SDS011;6703;51.994;7.570;2023-08-30T06:25:18;39.13;;;17.95;;
13269;SDS011;6703;51.994;7.570;2023-08-30T06:27:54;43.03;;;18.05;;
13269;SDS011;6703;51.994;7.570;2023-08-30T06:30:23;40.47;;;18.85;;
13269;SDS011;6703;51.994;7.570;2023-08-30T06:32:51;36.50;;;18.13;;
13269;SDS011;6703;51.994;7.570;2023-08-30T06:35:20;37.28;;;18.13;;
13269;SDS011;6703;51.994;7.570;2023-08-30T06:37:48;37.25;;;18.33;;
13269;SDS011;6703;51.994;7.570;2023-08-30T06:40:16;36.10;;;18.33;;
13269;SDS011;6703;51.994;7.570;2023-08-30T06:42:44;36.17;;;18.52;;
13269;SDS011;6703;51.994;7.570;2023-08-30T06:45:12;43.08;;;20.10;;
13269;SDS011;6703;51.994;7.570;2023-08-30T06:47:42;38.83;;;19.02;;
13269;SDS011;6703;51.994;7.570;2023-08-30T06:50:10;40.13;;;20.45;;
13269;SDS011;6703;51.994;7.570;2023-08-30T06:52:39;39.88;;;19.48;;
13269;SDS011;6703;51.994;7.570;2023-08-30T06:55:15;45.05;;;19.73;;
13269;SDS011;6703;51.994;7.570;2023-08-30T06:57:47;41.40;;;19.52;;
13269;SDS011;6703;51.994;7.570;2023-08-30T07:00:16;33.80;;;18.77;;
13269;SDS011;6703;51.994;7.570;2023-08-30T07:02:45;39.60;;;20.25;;
13269;SDS011;6703;51.994;7.570;2023-08-30T07:05:12;34.38;;;18.83;;
13269;SDS011;6703;51.994;7.570;2023-08-30T07:07:41;40.70;;;18.92;;
13269;SDS011;6703;51.994;7.570;2023-08-30T07:10:09;37.47;;;18.75;;
13269;SDS011;6703;51.994;7.570;2023-08-30T07:12:38;37.63;;;19.08;;
13269;SDS011;6703;51.994;7.570;2023-08-30T07:15:07;43.95;;;19.88;;
13269;SDS011;6703;51.994;7.570;2023-08-30T07:17:35;42.30;;;19.80;;
13269;SDS011;6703;51.994;7.570;2023-08-30T07:20:18;34.05;;;17.92;;
13269;SDS011;6703;51.994;7.570;2023-08-30T07:22:46;33.33;;;16.42;;
13269;SDS011;6703;51.994;7.570;2023-08-30T07:25:13;31.38;;;16.63;;
13269;SDS011;6703;51.994;7.570;2023-08-30T07:27:43;27.37;;;14.23;;
13269;SDS011;6703;51.994;7.570;2023-08-30T07:30:11;30.10;;;13.48;;
13269;SDS011;6703;51.994;7.570;2023-08-30T07:32:40;22.80;;;12.55;;
13269;SDS011;6703;51.994;7.570;2023-08-30T07:35:08;30.53;;;13.87;;
13269;SDS011;6703;51.994;7.570;2023-08-30T07:37:39;25.30;;;12.00;;
13269;SDS011;6703;51.994;7.570;2023-08-30T07:43:08;24.92;;;12.55;;
13269;SDS011;6703;51.994;7.570;2023-08-30T07:45:37;25.73;;;12.60;;
13269;SDS011;6703;51.994;7.570;2023-08-30T07:48:05;23.13;;;12.35;;
13269;SDS011;6703;51.994;7.570;2023-08-30T07:50:33;24.95;;;12.70;;
13269;SDS011;6703;51.994;7.570;2023-08-30T07:53:01;21.58;;;11.77;;
13269;SDS011;6703;51.994;7.570;2023-08-30T07:55:29;24.60;;;12.40;;
13269;SDS011;6703;51.994;7.570;2023-08-30T07:57:56;25.90;;;12.93;;
13269;SDS011;6703;51.994;7.570;2023-08-30T08:00:25;23.98;;;13.25;;
13269;SDS011;6703;51.994;7.570;2023-08-30T08:02:53;24.63;;;13.35;;
13269;SDS011;6703;51.994;7.570;2023-08-30T08:05:21;25.15;;;13.25;;
13269;SDS011;6703;51.994;7.570;2023-08-30T08:07:50;28.45;;;13.10;;
13269;SDS011;6703;51.994;7.570;2023-08-30T08:10:19;24.63;;;13.75;;
13269;SDS011;6703;51.994;7.570;2023-08-30T08:12:46;26.27;;;13.15;;
13269;SDS011;6703;51.994;7.570;2023-08-30T08:15:14;26.42;;;13.10;;
13269;SDS011;6703;51.994;7.570;2023-08-30T08:17:44;25.90;;;14.25;;
13269;SDS011;6703;51.994;7.570;2023-08-30T08:20:12;26.67;;;13.57;;
13269;SDS011;6703;51.994;7.570;2023-08-30T08:22:40;23.60;;;13.35;;
13269;SDS011;6703;51.994;7.570;2023-08-30T08:25:08;22.38;;;13.38;;
13269;SDS011;6703;51.994;7.570;2023-08-30T08:27:36;28.50;;;14.52;;
13269;SDS011;6703;51.994;7.570;2023-08-30T08:30:05;27.13;;;14.13;;
13269;SDS011;6703;51.994;7.570;2023-08-30T08:32:33;28.75;;;14.20;;
13269;SDS011;6703;51.994;7.570;2023-08-30T08:35:03;24.80;;;13.87;;
13269;SDS011;6703;51.994;7.570;2023-08-30T08:37:31;26.42;;;14.48;;
13269;SDS011;6703;51.994;7.570;2023-08-30T08:39:59;30.17;;;14.88;;
13269;SDS011;6703;51.994;7.570;2023-08-30T08:42:30;27.83;;;14.85;;
13269;SDS011;6703;51.994;7.570;2023-08-30T08:44:57;26.17;;;14.88;;
13269;SDS011;6703;51.994;7.570;2023-08-30T08:47:26;27.88;;;14.15;;
13269;SDS011;6703;51.994;7.570;2023-08-30T08:49:54;26.53;;;14.67;;
13269;SDS011;6703;51.994;7.570;2023-08-30T08:52:27;25.13;;;14.55;;
13269;SDS011;6703;51.994;7.570;2023-08-30T08:55:03;24.83;;;14.30;;
13269;SDS011;6703;51.994;7.570;2023-08-30T08:57:32;24.92;;;14.45;;
13269;SDS011;6703;51.994;7.570;2023-08-30T09:00:00;26.40;;;14.82;;
13269;SDS011;6703;51.994;7.570;2023-08-30T09:02:28;23.77;;;14.18;;
13269;SDS011;6703;51.994;7.570;2023-08-30T09:04:56;26.17;;;14.52;;
13269;SDS011;6703;51.994;7.570;2023-08-30T09:07:26;27.20;;;14.65;;
13269;SDS011;6703;51.994;7.570;2023-08-30T09:09:54;24.43;;;14.33;;
13269;SDS011;6703;51.994;7.570;2023-08-30T09:12:22;26.27;;;14.35;;
13269;SDS011;6703;51.994;7.570;2023-08-30T09:14:54;26.53;;;14.67;;
13269;SDS011;6703;51.994;7.570;2023-08-30T09:17:22;26.40;;;14.85;;
13269;SDS011;6703;51.994;7.570;2023-08-30T09:20:06;27.80;;;14.77;;
13269;SDS011;6703;51.994;7.570;2023-08-30T09:22:37;27.08;;;14.80;;
13269;SDS011;6703;51.994;7.570;2023-08-30T09:25:06;26.50;;;14.35;;
13269;SDS011;6703;51.994;7.570;2023-08-30T09:27:35;27.20;;;15.20;;
13269;SDS011;6703;51.994;7.570;2023-08-30T09:30:05;25.83;;;14.07;;
13269;SDS011;6703;51.994;7.570;2023-08-30T09:32:38;23.48;;;13.38;;
13269;SDS011;6703;51.994;7.570;2023-08-30T09:35:07;24.55;;;12.82;;
13269;SDS011;6703;51.994;7.570;2023-08-30T09:37:37;25.73;;;12.90;;
13269;SDS011;6703;51.994;7.570;2023-08-30T09:40:05;22.15;;;12.90;;
13269;SDS011;6703;51.994;7.570;2023-08-30T09:42:34;24.00;;;11.98;;
13269;SDS011;6703;51.994;7.570;2023-08-30T09:45:03;21.08;;;11.85;;
13269;SDS011;6703;51.994;7.570;2023-08-30T09:47:32;22.88;;;12.52;;
13269;SDS011;6703;51.994;7.570;2023-08-30T09:50:00;22.57;;;12.00;;
13269;SDS011;6703;51.994;7.570;2023-08-30T09:52:27;21.23;;;11.07;;
13269;SDS011;6703;51.994;7.570;2023-08-30T09:54:57;19.73;;;10.85;;
13269;SDS011;6703;51.994;7.570;2023-08-30T09:57:25;21.75;;;10.45;;
13269;SDS011;6703;51.994;7.570;2023-08-30T09:59:54;20.65;;;10.95;;
13269;SDS011;6703;51.994;7.570;2023-08-30T10:02:22;23.20;;;10.02;;
13269;SDS011;6703;51.994;7.570;2023-08-30T10:04:51;19.73;;;10.20;;
13269;SDS011;6703;51.994;7.570;2023-08-30T10:07:19;19.67;;;10.18;;
13269;SDS011;6703;51.994;7.570;2023-08-30T10:09:48;19.85;;;9.73;;
13269;SDS011;6703;51.994;7.570;2023-08-30T10:12:36;17.25;;;9.43;;
13269;SDS011;6703;51.994;7.570;2023-08-30T10:15:05;15.18;;;9.30;;
13269;SDS011;6703;51.994;7.570;2023-08-30T10:17:33;16.92;;;8.98;;
13269;SDS011;6703;51.994;7.570;2023-08-30T10:20:03;18.08;;;8.90;;
13269;SDS011;6703;51.994;7.570;2023-08-30T10:22:32;19.23;;;8.85;;
13269;SDS011;6703;51.994;7.570;2023-08-30T10:25:04;16.17;;;9.32;;
13269;SDS011;6703;51.994;7.570;2023-08-30T10:27:39;18.75;;;9.07;;
13269;SDS011;6703;51.994;7.570;2023-08-30T10:30:09;17.05;;;8.75;;
13269;SDS011;6703;51.994;7.570;2023-08-30T10:32:39;15.63;;;8.15;;
13269;SDS011;6703;51.994;7.570;2023-08-30T10:35:09;17.23;;;8.15;;
13269;SDS011;6703;51.994;7.570;2023-08-30T10:37:38;14.32;;;7.80;;
13269;SDS011;6703;51.994;7.570;2023-08-30T10:40:06;19.00;;;8.38;;
13269;SDS011;6703;51.994;7.570;2023-08-30T10:42:34;13.45;;;8.13;;
13269;SDS011;6703;51.994;7.570;2023-08-30T10:45:05;13.43;;;7.35;;
13269;SDS011;6703;51.994;7.570;2023-08-30T10:47:39;14.68;;;7.70;;
13269;SDS011;6703;51.994;7.570;2023-08-30T10:50:08;14.60;;;7.95;;
13269;SDS011;6703;51.994;7.570;2023-08-30T10:52:37;13.85;;;8.02;;
13269;SDS011;6703;51.994;7.570;2023-08-30T10:55:05;18.42;;;8.15;;
13269;SDS011;6703;51.994;7.570;2023-08-30T10:57:34;13.70;;;8.23;;
13269;SDS011;6703;51.994;7.570;2023-08-30T11:00:12;16.58;;;9.20;;
13269;SDS011;6703;51.994;7.570;2023-08-30T11:02:47;18.70;;;8.97;;
13269;SDS011;6703;51.994;7.570;2023-08-30T11:05:16;15.50;;;9.85;;
13269;SDS011;6703;51.994;7.570;2023-08-30T11:07:45;18.25;;;10.27;;
13269;SDS011;6703;51.994;7.570;2023-08-30T11:10:15;19.10;;;10.32;;
13269;SDS011;6703;51.994;7.570;2023-08-30T11:12:43;17.75;;;8.82;;
13269;SDS011;6703;51.994;7.570;2023-08-30T11:15:13;20.83;;;9.02;;
13269;SDS011;6703;51.994;7.570;2023-08-30T11:17:41;16.73;;;8.63;;
13269;SDS011;6703;51.994;7.570;2023-08-30T11:20:09;15.93;;;8.40;;
13269;SDS011;6703;51.994;7.570;2023-08-30T11:22:39;16.65;;;7.90;;
13269;SDS011;6703;51.994;7.570;2023-08-30T11:25:08;14.48;;;7.65;;
13269;SDS011;6703;51.994;7.570;2023-08-30T11:27:36;14.93;;;6.38;;
13269;SDS011;6703;51.994;7.570;2023-08-30T11:30:05;13.43;;;6.65;;
13269;SDS011;6703;51.994;7.570;2023-08-30T11:32:36;11.30;;;5.80;;
13269;SDS011;6703;51.994;7.570;2023-08-30T11:35:05;9.23;;;4.78;;
13269;SDS011;6703;51.994;7.570;2023-08-30T11:37:34;10.75;;;4.63;;
13269;SDS011;6703;51.994;7.570;2023-08-30T11:40:02;9.00;;;4.50;;
13269;SDS011;6703;51.994;7.570;2023-08-30T11:42:32;11.90;;;4.72;;
13269;SDS011;6703;51.994;7.570;2023-08-30T11:45:01;8.00;;;3.78;;
13269;SDS011;6703;51.994;7.570;2023-08-30T11:47:30;10.63;;;3.67;;
13269;SDS011;6703;51.994;7.570;2023-08-30T11:50:00;9.63;;;4.43;;
13269;SDS011;6703;51.994;7.570;2023-08-30T11:52:28;8.23;;;4.57;;
13269;SDS011;6703;51.994;7.570;2023-08-30T11:54:56;7.93;;;4.00;;
13269;SDS011;6703;51.994;7.570;2023-08-30T11:57:24;12.07;;;4.70;;
13269;SDS011;6703;51.994;7.570;2023-08-30T11:59:54;22.87;;;5.23;;
13269;SDS011;6703;51.994;7.570;2023-08-30T12:02:21;10.48;;;5.18;;
13269;SDS011;6703;51.994;7.570;2023-08-30T12:04:50;11.38;;;5.25;;
13269;SDS011;6703;51.994;7.570;2023-08-30T12:08:00;12.05;;;5.43;;
13269;SDS011;6703;51.994;7.570;2023-08-30T12:10:29;11.70;;;5.70;;
13269;SDS011;6703;51.994;7.570;2023-08-30T12:12:58;14.73;;;5.72;;
13269;SDS011;6703;51.994;7.570;2023-08-30T12:15:26;9.90;;;5.82;;
13269;SDS011;6703;51.994;7.570;2023-08-30T12:18:05;12.07;;;6.05;;
13269;SDS011;6703;51.994;7.570;2023-08-30T12:20:33;9.93;;;5.50;;
13269;SDS011;6703;51.994;7.570;2023-08-30T12:23:03;14.10;;;5.45;;
13269;SDS011;6703;51.994;7.570;2023-08-30T12:25:30;11.98;;;6.00;;
13269;SDS011;6703;51.994;7.570;2023-08-30T12:28:00;14.68;;;6.38;;
13269;SDS011;6703;51.994;7.570;2023-08-30T12:30:28;11.73;;;5.95;;
13269;SDS011;6703;51.994;7.570;2023-08-30T12:33:00;12.18;;;6.07;;
13269;SDS011;6703;51.994;7.570;2023-08-30T12:35:29;11.90;;;5.80;;
13269;SDS011;6703;51.994;7.570;2023-08-30T12:37:56;10.57;;;6.20;;
13269;SDS011;6703;51.994;7.570;2023-08-30T12:40:26;17.73;;;6.85;;
13269;SDS011;6703;51.994;7.570;2023-08-30T12:42:53;16.40;;;6.25;;
13269;SDS011;6703;51.994;7.570;2023-08-30T12:45:21;11.98;;;6.15;;
13269;SDS011;6703;51.994;7.570;2023-08-30T12:47:49;14.10;;;6.53;;
13269;SDS011;6703;51.994;7.570;2023-08-30T12:50:17;14.37;;;7.23;;
13269;SDS011;6703;51.994;7.570;2023-08-30T12:55:31;13.43;;;6.90;;
13269;SDS011;6703;51.994;7.570;2023-08-30T12:57:59;14.60;;;6.38;;
13269;SDS011;6703;51.994;7.570;2023-08-30T13:00:26;12.48;;;5.63;;
13269;SDS011;6703;51.994;7.570;2023-08-30T13:02:54;11.88;;;5.97;;
13269;SDS011;6703;51.994;7.570;2023-08-30T13:05:22;11.00;;;6.50;;
13269;SDS011;6703;51.994;7.570;2023-08-30T13:07:50;8.82;;;5.38;;
13269;SDS011;6703;51.994;7.570;2023-08-30T13:10:18;9.45;;;5.00;;
13269;SDS011;6703;51.994;7.570;2023-08-30T13:12:47;10.63;;;5.22;;
13269;SDS011;6703;51.994;7.570;2023-08-30T13:15:15;8.70;;;5.00;;
13269;SDS011;6703;51.994;7.570;2023-08-30T13:17:42;11.25;;;5.00;;
13269;SDS011;6703;51.994;7.570;2023-08-30T13:20:10;9.95;;;4.85;;
13269;SDS011;6703;51.994;7.570;2023-08-30T13:22:38;8.90;;;5.30;;
13269;SDS011;6703;51.994;7.570;2023-08-30T13:25:06;7.72;;;4.88;;
13269;SDS011;6703;51.994;7.570;2023-08-30T13:27:35;6.30;;;4.50;;
13269;SDS011;6703;51.994;7.570;2023-08-30T13:30:05;6.13;;;4.17;;
13269;SDS011;6703;51.994;7.570;2023-08-30T13:32:54;7.27;;;4.47;;
13269;SDS011;6703;51.994;7.570;2023-08-30T13:35:22;9.55;;;4.63;;
13269;SDS011;6703;51.994;7.570;2023-08-30T13:37:50;7.67;;;4.80;;
13269;SDS011;6703;51.994;7.570;2023-08-30T13:40:17;15.85;;;5.55;;
13269;SDS011;6703;51.994;7.570;2023-08-30T13:42:45;16.97;;;6.17;;
13269;SDS011;6703;51.994;7.570;2023-08-30T13:45:15;14.02;;;5.95;;
13269;SDS011;6703;51.994;7.570;2023-08-30T13:47:43;8.38;;;5.50;;
13269;SDS011;6703;51.994;7.570;2023-08-30T13:50:11;9.88;;;6.07;;
13269;SDS011;6703;51.994;7.570;2023-08-30T13:52:39;9.45;;;5.75;;
13269;SDS011;6703;51.994;7.570;2023-08-30T13:58:20;16.00;;;6.90;;
13269;SDS011;6703;51.994;7.570;2023-08-30T14:00:50;11.30;;;6.97;;
13269;SDS011;6703;51.994;7.570;2023-08-30T14:03:40;14.05;;;7.05;;
13269;SDS011;6703;51.994;7.570;2023-08-30T14:06:08;12.60;;;6.90;;
13269;SDS011;6703;51.994;7.570;2023-08-30T14:08:36;13.02;;;7.70;;
13269;SDS011;6703;51.994;7.570;2023-08-30T14:11:04;13.02;;;7.85;;
13269;SDS011;6703;51.994;7.570;2023-08-30T14:13:32;14.00;;;8.25;;
13269;SDS011;6703;51.994;7.570;2023-08-30T14:16:02;14.00;;;7.97;;
13269;SDS011;6703;51.994;7.570;2023-08-30T14:18:30;13.60;;;8.40;;
13269;SDS011;6703;51.994;7.570;2023-08-30T14:20:58;15.52;;;8.45;;
13269;SDS011;6703;51.994;7.570;2023-08-30T14:23:27;15.37;;;8.00;;
13269;SDS011;6703;51.994;7.570;2023-08-30T14:25:56;14.73;;;8.40;;
13269;SDS011;6703;51.994;7.570;2023-08-30T14:28:24;15.15;;;9.05;;
13269;SDS011;6703;51.994;7.570;2023-08-30T14:30:53;13.57;;;7.83;;
13269;SDS011;6703;51.994;7.570;2023-08-30T14:33:22;13.57;;;8.47;;
13269;SDS011;6703;51.994;7.570;2023-08-30T14:35:50;15.55;;;9.15;;
13269;SDS011;6703;51.994;7.570;2023-08-30T14:38:19;15.45;;;9.65;;
13269;SDS011;6703;51.994;7.570;2023-08-30T14:40:53;15.25;;;8.63;;
13269;SDS011;6703;51.994;7.570;2023-08-30T14:43:21;15.10;;;8.98;;
13269;SDS011;6703;51.994;7.570;2023-08-30T14:45:49;18.70;;;10.40;;
13269;SDS011;6703;51.994;7.570;2023-08-30T14:48:34;14.23;;;10.50;;
13269;SDS011;6703;51.994;7.570;2023-08-30T14:51:04;15.17;;;10.50;;
13269;SDS011;6703;51.994;7.570;2023-08-30T14:53:33;13.90;;;9.77;;
13269;SDS011;6703;51.994;7.570;2023-08-30T14:56:01;16.13;;;10.07;;
13269;SDS011;6703;51.994;7.570;2023-08-30T14:58:33;14.55;;;10.10;;
13269;SDS011;6703;51.994;7.570;2023-08-30T15:01:02;17.40;;;11.02;;
13269;SDS011;6703;51.994;7.570;2023-08-30T15:03:29;17.73;;;10.80;;